Time;durP1;ratioP1;P1;durP2;ratioP2;P2;SDS_P1;SDS_P2;PMS_P1;PMS_P2;Temp;Humidity;BMP_temperature;BMP_pressure;BME280_temperature;BME280_humidity;BME280_pressure;Samples;Min_cycle;Max_cycle;Signal;HPM_P1;HPM_P2
2022/03/18 00:01:22;;;;;;;0.30;0.20;;;;;;;6.03;100.00;102235.19;5038240;28;20506;-50
2022/03/18 00:03:49;;;;;;;0.30;0.10;;;;;;;5.97;100.00;102241.25;5038457;28;20463;-50
2022/03/18 00:06:17;;;;;;;0.30;0.10;;;;;;;6.02;100.00;102239.56;5038309;28;20457;-50
2022/03/18 00:08:46;;;;;;;0.30;0.20;;;;;;;5.83;100.00;102240.91;5055251;28;20585;-50
2022/03/18 00:11:14;;;;;;;0.30;0.20;;;;;;;5.61;100.00;102241.25;5040143;28;20561;-50
2022/03/18 00:13:41;;;;;;;0.30;0.13;;;;;;;5.58;100.00;102236.81;5049975;28;20478;-50
2022/03/18 00:16:07;;;;;;;0.20;0.10;;;;;;;5.57;100.00;102237.66;5048936;28;20483;-51
2022/03/18 00:18:34;;;;;;;0.20;0.10;;;;;;;5.45;100.00;102244.41;5054862;28;20447;-50
2022/03/18 00:21:01;;;;;;;0.30;0.10;;;;;;;5.48;100.00;102239.19;5054816;28;20470;-50
2022/03/18 00:23:28;;;;;;;0.30;0.20;;;;;;;5.34;100.00;102247.69;5041868;28;20533;-50
2022/03/18 00:25:54;;;;;;;0.30;0.10;;;;;;;5.38;100.00;102242.47;5041560;28;20452;-49
2022/03/18 00:28:21;;;;;;;1.13;1.13;;;;;;;5.30;100.00;102245.81;5047771;28;20448;-51
2022/03/18 00:30:48;;;;;;;0.20;0.10;;;;;;;5.32;100.00;102241.47;5048016;28;20516;-49
2022/03/18 00:33:15;;;;;;;0.20;0.20;;;;;;;5.47;100.00;102242.69;5042693;28;20454;-50
2022/03/18 00:35:42;;;;;;;0.30;0.10;;;;;;;5.17;100.00;102237.56;5041400;28;20856;-50
2022/03/18 00:38:08;;;;;;;0.20;0.17;;;;;;;5.17;100.00;102246.34;5047014;28;20478;-50
2022/03/18 00:40:35;;;;;;;0.80;0.80;;;;;;;5.00;100.00;102239.78;5048147;28;20508;-50
2022/03/18 00:43:03;;;;;;;0.30;0.20;;;;;;;5.06;100.00;102245.19;5043224;28;20474;-49
2022/03/18 00:45:31;;;;;;;0.30;0.20;;;;;;;4.96;100.00;102248.47;5041647;28;20568;-50
2022/03/18 00:53:28;;;;;;;0.30;0.20;;;;;;;5.04;100.00;102234.63;5048000;28;20568;-49
2022/03/18 00:55:55;;;;;;;0.30;0.17;;;;;;;4.82;100.00;102248.09;5042188;28;20508;-50
2022/03/18 00:58:22;;;;;;;0.20;0.20;;;;;;;4.89;100.00;102246.50;5041059;28;20517;-50
2022/03/18 01:00:48;;;;;;;0.20;0.20;;;;;;;5.10;100.00;102241.81;5046775;28;20510;-50
2022/03/18 01:03:15;;;;;;;0.20;0.10;;;;;;;4.99;100.00;102246.78;5047580;28;20459;-50
2022/03/18 01:05:43;;;;;;;0.30;0.10;;;;;;;4.74;100.00;102247.88;5042516;28;20478;-50
2022/03/18 01:08:10;;;;;;;0.20;0.10;;;;;;;4.74;100.00;102247.00;5039756;28;20454;-50
2022/03/18 01:10:36;;;;;;;0.20;0.10;;;;;;;4.90;100.00;102248.28;5042520;28;20513;-50
2022/03/18 01:13:03;;;;;;;0.20;0.20;;;;;;;4.94;100.00;102252.81;5068789;22;20505;-50
2022/03/18 01:15:30;;;;;;;0.20;0.20;;;;;;;4.88;100.00;102261.44;5045898;28;21013;-50
2022/03/18 01:17:57;;;;;;;0.20;0.10;;;;;;;5.16;100.00;102256.88;5046143;28;20479;-49
2022/03/18 01:20:23;;;;;;;0.20;0.20;;;;;;;5.47;100.00;102258.50;5053635;28;20443;-50
2022/03/18 01:22:50;;;;;;;0.30;0.20;;;;;;;5.40;100.00;102262.75;5050297;28;20507;-50
2022/03/18 01:25:17;;;;;;;0.30;0.10;;;;;;;5.17;100.00;102259.53;5042618;28;20523;-50
2022/03/18 01:27:43;;;;;;;0.20;0.10;;;;;;;5.18;100.00;102263.94;5040478;28;20447;-50
2022/03/18 01:30:11;;;;;;;0.20;0.20;;;;;;;5.00;100.00;102255.59;5045448;28;20845;-50
2022/03/18 01:32:37;;;;;;;0.20;0.10;;;;;;;5.10;100.00;102256.72;5046864;28;20459;-50
2022/03/18 01:35:04;;;;;;;0.30;0.27;;;;;;;5.01;100.00;102250.34;5042778;28;20500;-50
2022/03/18 01:37:31;;;;;;;0.20;0.20;;;;;;;5.11;100.00;102255.88;5040428;28;20448;-50
2022/03/18 01:39:58;;;;;;;0.20;0.20;;;;;;;4.89;100.00;102252.66;5044580;28;20928;-50
2022/03/18 01:42:25;;;;;;;0.30;0.10;;;;;;;4.89;100.00;102246.50;5047072;28;20560;-50
2022/03/18 01:44:51;;;;;;;0.20;0.20;;;;;;;4.83;100.00;102257.78;5043303;28;20455;-49
2022/03/18 01:47:18;;;;;;;0.30;0.20;;;;;;;5.30;100.00;102256.34;5044547;28;20451;-50
2022/03/18 01:49:45;;;;;;;0.57;0.57;;;;;;;5.41;100.00;102254.00;5043922;28;20944;-50
2022/03/18 01:52:11;;;;;;;0.20;0.20;;;;;;;5.87;100.00;102257.69;5046842;28;20500;-50
2022/03/18 01:54:45;;;;;;;0.20;0.10;;;;;;;5.73;100.00;102267.03;5043608;28;20450;-50
2022/03/18 01:57:15;;;;;;;0.20;0.10;;;;;;;6.01;100.00;102264.19;5040138;28;20899;-50
2022/03/18 01:59:41;;;;;;;0.30;0.20;;;;;;;5.94;100.00;102265.81;5041666;28;20459;-50
2022/03/18 02:02:08;;;;;;;0.20;0.10;;;;;;;6.04;100.00;102269.56;5046390;28;20464;-50
2022/03/18 02:04:36;;;;;;;0.20;0.10;;;;;;;5.98;100.00;102274.69;5045527;28;20447;-50
2022/03/18 02:07:04;;;;;;;0.20;0.10;;;;;;;6.18;100.00;102270.75;5039980;28;20447;-49
2022/03/18 02:09:32;;;;;;;0.20;0.17;;;;;;;5.88;100.00;102267.38;5040484;28;20940;-50
2022/03/18 02:12:00;;;;;;;0.20;0.20;;;;;;;5.97;100.00;102272.91;5046348;28;20550;-50
2022/03/18 02:14:31;;;;;;;0.27;0.17;;;;;;;6.05;100.00;102276.63;5059452;28;20459;-47
2022/03/18 02:16:57;;;;;;;0.20;0.13;;;;;;;6.15;100.00;102270.66;5051613;28;20486;-46
2022/03/18 02:19:24;;;;;;;0.20;0.10;;;;;;;5.94;100.00;102273.75;5053733;28;20454;-47
2022/03/18 02:21:56;;;;;;;0.20;0.10;;;;;;;5.95;100.00;102277.28;5036915;28;20550;-46
2022/03/18 02:24:23;;;;;;;0.20;0.10;;;;;;;6.03;100.00;102274.78;5047176;28;20496;-46
2022/03/18 02:26:51;;;;;;;0.20;0.10;;;;;;;5.89;100.00;102277.06;5041174;28;20451;-47
2022/03/18 02:29:19;;;;;;;0.97;0.97;;;;;;;5.75;100.00;102273.22;5040325;28;20455;-47
2022/03/18 02:31:46;;;;;;;0.20;0.20;;;;;;;5.58;100.00;102276.38;5045921;28;20531;-46
2022/03/18 02:34:14;;;;;;;0.20;0.10;;;;;;;5.47;100.00;102277.84;5046906;28;20443;-47
2022/03/18 02:36:41;;;;;;;0.30;0.20;;;;;;;5.39;100.00;102278.53;5042007;28;20994;-46
2022/03/18 02:39:07;;;;;;;1.43;0.70;;;;;;;5.21;100.00;102278.97;5040155;28;20455;-46
2022/03/18 02:41:34;;;;;;;0.20;0.20;;;;;;;4.89;100.00;102267.59;5045506;28;20464;-46
2022/03/18 02:44:01;;;;;;;0.20;0.10;;;;;;;4.79;100.00;102274.34;5047370;28;20450;-46
2022/03/18 02:46:32;;;;;;;0.20;0.17;;;;;;;4.76;100.00;102280.44;5042521;28;20506;-48
2022/03/18 02:49:04;;;;;;;0.20;0.20;;;;;;;4.66;100.00;102270.50;5051672;28;20501;-46
2022/03/18 02:51:31;;;;;;;0.20;0.10;;;;;;;4.57;100.00;102272.88;5043957;28;20577;-47
2022/03/18 02:53:58;;;;;;;0.20;0.10;;;;;;;4.44;100.00;102271.63;5039808;28;20503;-47
2022/03/18 02:56:25;;;;;;;0.20;0.10;;;;;;;4.48;100.00;102275.25;5041800;28;20460;-50
2022/03/18 02:58:52;;;;;;;0.20;0.20;;;;;;;4.39;100.00;102272.38;5045800;28;20917;-50
2022/03/18 03:01:19;;;;;;;0.20;0.13;;;;;;;4.46;100.00;102276.94;5043215;28;20463;-50
2022/03/18 03:03:46;;;;;;;0.30;0.23;;;;;;;4.46;100.00;102284.84;5038861;28;20487;-50
2022/03/18 03:08:57;;;;;;;0.20;0.20;;;;;;;4.75;100.00;102285.66;5039393;28;20442;-50
2022/03/18 03:11:24;;;;;;;0.20;0.10;;;;;;;4.71;100.00;102291.69;5038502;28;20922;-49
2022/03/18 03:13:51;;;;;;;0.20;0.10;;;;;;;4.64;100.00;102292.38;5052221;28;20920;-49
2022/03/18 03:16:21;;;;;;;0.20;0.10;;;;;;;4.71;100.00;102289.06;5050876;28;20478;-49
2022/03/18 03:18:48;;;;;;;0.20;0.10;;;;;;;4.89;100.00;102289.56;5051531;28;20446;-50
2022/03/18 03:21:15;;;;;;;0.20;0.10;;;;;;;4.69;100.00;102296.94;5039197;28;20475;-49
2022/03/18 03:23:42;;;;;;;0.20;0.20;;;;;;;4.57;100.00;102301.84;5040861;28;20845;-49
2022/03/18 03:26:09;;;;;;;0.20;0.10;;;;;;;4.50;100.00;102302.50;5038790;28;20451;-49
2022/03/18 03:28:35;;;;;;;0.20;0.20;;;;;;;4.34;100.00;102301.19;5043337;28;20476;-49
2022/03/18 03:31:03;;;;;;;0.20;0.20;;;;;;;4.26;100.00;102301.81;5044987;28;20483;-49
2022/03/18 03:33:31;;;;;;;0.20;0.10;;;;;;;4.10;100.00;102306.59;5041485;28;20466;-49
2022/03/18 03:35:57;;;;;;;0.20;0.20;;;;;;;4.03;100.00;102314.28;5038788;28;20889;-50
2022/03/18 03:38:25;;;;;;;0.30;0.20;;;;;;;4.02;100.00;102316.00;5042340;28;20448;-49
2022/03/18 03:40:52;;;;;;;0.20;0.20;;;;;;;3.92;100.00;102316.56;5045379;28;20451;-49
2022/03/18 03:43:19;;;;;;;0.20;0.20;;;;;;;3.81;100.00;102321.47;5045197;28;20501;-49
2022/03/18 03:45:45;;;;;;;0.20;0.20;;;;;;;3.98;100.00;102327.28;5042290;28;20450;-49
2022/03/18 03:48:12;;;;;;;0.20;0.17;;;;;;;4.43;100.00;102326.88;5055645;28;20446;-49
2022/03/18 03:50:40;;;;;;;0.20;0.10;;;;;;;4.21;100.00;102319.19;5044340;28;21005;-51
2022/03/18 03:53:08;;;;;;;0.20;0.10;;;;;;;4.43;100.00;102330.41;5047579;28;20825;-51
2022/03/18 03:55:39;;;;;;;0.20;0.20;;;;;;;4.42;100.00;102326.00;5049055;28;20525;-50
2022/03/18 03:58:09;;;;;;;0.20;0.10;;;;;;;4.35;100.00;102341.56;5047051;28;20450;-50
2022/03/18 04:00:36;;;;;;;0.20;0.20;;;;;;;4.21;100.00;102349.03;5042022;28;20508;-50
2022/03/18 04:03:04;;;;;;;0.30;0.20;;;;;;;4.30;100.00;102349.31;5043247;28;20475;-50
2022/03/18 04:05:33;;;;;;;0.20;0.10;;;;;;;4.27;100.00;102348.34;5049010;28;20478;-50
2022/03/18 04:08:00;;;;;;;0.20;0.20;;;;;;;3.88;100.00;102343.63;5048499;28;20496;-50
2022/03/18 04:10:26;;;;;;;0.20;0.10;;;;;;;4.06;100.00;102354.72;5039732;28;20447;-50
2022/03/18 04:12:55;;;;;;;0.30;0.20;;;;;;;3.93;100.00;102363.06;5049486;28;20548;-51
2022/03/18 04:15:21;;;;;;;0.20;0.10;;;;;;;3.98;100.00;102363.25;5042026;28;20500;-50
2022/03/18 04:17:49;;;;;;;0.20;0.10;;;;;;;3.52;100.00;102364.34;5052877;28;20450;-49
2022/03/18 04:20:21;;;;;;;0.20;0.10;;;;;;;3.67;100.00;102362.22;5048181;28;20521;-51
2022/03/18 04:22:52;;;;;;;0.20;0.10;;;;;;;3.41;100.00;102366.59;5038393;28;20506;-51
2022/03/18 04:25:20;;;;;;;0.20;0.10;;;;;;;3.42;100.00;102378.00;5046326;28;20941;-51
2022/03/18 04:27:48;;;;;;;0.20;0.10;;;;;;;3.36;100.00;102377.81;5048657;28;20451;-50
2022/03/18 04:30:15;;;;;;;0.20;0.10;;;;;;;3.58;100.00;102380.34;5044043;28;20450;-50
2022/03/18 04:32:42;;;;;;;0.20;0.10;;;;;;;3.59;100.00;102390.00;5041463;28;20495;-51
2022/03/18 04:35:11;;;;;;;0.20;0.10;;;;;;;3.43;100.00;102392.97;5045364;28;20845;-50
2022/03/18 04:37:39;;;;;;;0.20;0.10;;;;;;;3.50;100.00;102398.47;5048100;28;20447;-51
2022/03/18 04:40:11;;;;;;;0.20;0.10;;;;;;;3.62;100.00;102395.38;5044760;28;20516;-50
2022/03/18 04:42:38;;;;;;;0.37;0.37;;;;;;;3.34;100.00;102403.16;5041687;28;20798;-50
2022/03/18 04:45:06;;;;;;;0.20;0.10;;;;;;;3.39;100.00;102398.94;5043966;28;20455;-51
2022/03/18 04:47:33;;;;;;;0.20;0.10;;;;;;;3.22;100.00;102399.25;5052074;28;20446;-50
2022/03/18 04:50:00;;;;;;;0.20;0.10;;;;;;;3.32;100.00;102403.09;5043376;28;21004;-51
2022/03/18 04:52:27;;;;;;;0.20;0.10;;;;;;;3.30;100.00;102403.91;5052290;28;20560;-50
2022/03/18 04:54:54;;;;;;;0.20;0.10;;;;;;;3.25;100.00;102407.22;5042898;28;20483;-50
2022/03/18 04:57:20;;;;;;;0.20;0.13;;;;;;;3.25;100.00;102407.22;5047985;28;20506;-49
2022/03/18 04:59:49;;;;;;;0.20;0.10;;;;;;;3.35;100.00;102403.19;5046440;28;20803;-50
2022/03/18 05:02:16;;;;;;;0.20;0.20;;;;;;;3.31;100.00;102406.56;5040994;28;20576;-50
2022/03/18 05:04:44;;;;;;;0.20;0.10;;;;;;;3.53;100.00;102400.31;5041839;28;20505;-49
2022/03/18 05:07:12;;;;;;;0.30;0.20;;;;;;;3.29;100.00;102413.50;5040516;28;20442;-49
2022/03/18 05:09:39;;;;;;;0.20;0.10;;;;;;;3.28;100.00;102409.06;5041174;28;20455;-49
2022/03/18 05:12:11;;;;;;;0.20;0.17;;;;;;;3.39;100.00;102412.97;5041035;28;20494;-49
2022/03/18 05:14:39;;;;;;;0.20;0.10;;;;;;;3.32;100.00;102425.88;5053715;28;20443;-50
2022/03/18 05:17:08;;;;;;;0.20;0.10;;;;;;;3.05;100.00;102424.03;5051784;28;20502;-50
2022/03/18 05:19:36;;;;;;;0.20;0.10;;;;;;;2.97;100.00;102422.84;5052372;28;20496;-50
2022/03/18 05:22:04;;;;;;;0.20;0.10;;;;;;;3.10;100.00;102439.94;5036785;28;20495;-51
2022/03/18 05:24:31;;;;;;;0.20;0.20;;;;;;;3.00;100.00;102440.44;5047648;28;20451;-50
2022/03/18 05:26:58;;;;;;;0.30;0.20;;;;;;;2.94;100.00;102435.88;5043040;28;20517;-50
2022/03/18 05:29:27;;;;;;;0.20;0.17;;;;;;;3.46;100.00;102440.38;5040668;28;20455;-50
2022/03/18 05:31:54;;;;;;;0.20;0.20;;;;;;;3.04;100.00;102445.00;5044035;28;20570;-50
2022/03/18 05:34:21;;;;;;;0.20;0.10;;;;;;;3.09;100.00;102448.66;5047377;28;20529;-51
2022/03/18 05:36:49;;;;;;;0.20;0.20;;;;;;;3.01;100.00;102460.63;5043986;28;20496;-50
2022/03/18 05:39:16;;;;;;;0.20;0.10;;;;;;;3.12;100.00;102467.16;5040253;28;21016;-50
2022/03/18 05:41:43;;;;;;;0.20;0.10;;;;;;;3.56;100.00;102458.25;5043101;28;20495;-50
2022/03/18 05:44:10;;;;;;;0.20;0.10;;;;;;;4.20;100.00;102465.69;5046983;28;20476;-50
2022/03/18 05:46:41;;;;;;;0.20;0.10;;;;;;;4.32;100.00;102463.44;5044639;28;20451;-50
2022/03/18 05:49:08;;;;;;;0.20;0.17;;;;;;;4.61;100.00;102463.47;5049207;28;20447;-50
2022/03/18 05:51:35;;;;;;;0.20;0.10;;;;;;;4.79;100.00;102466.66;5044754;28;20904;-50
2022/03/18 05:54:01;;;;;;;0.20;0.10;;;;;;;4.85;100.00;102469.50;5040154;28;20451;-50
2022/03/18 05:59:15;;;;;;;0.20;0.20;;;;;;;4.90;100.00;102470.50;5040758;28;20481;-51
2022/03/18 06:01:42;;;;;;;0.20;0.10;;;;;;;5.15;100.00;102480.03;5040178;28;20522;-51
2022/03/18 06:04:10;;;;;;;0.20;0.10;;;;;;;4.80;100.00;102481.66;5044818;28;20893;-50
2022/03/18 06:06:39;;;;;;;0.20;0.10;;;;;;;5.04;100.00;102478.81;5046232;28;20963;-50
2022/03/18 06:11:51;;;;;;;0.30;0.20;;;;;;;4.63;100.00;102488.09;5039558;28;20555;-50
2022/03/18 06:14:20;;;;;;;0.20;0.10;;;;;;;4.75;100.00;102486.75;5052903;28;20458;-50
2022/03/18 06:16:48;;;;;;;18.43;1.40;;;;;;;4.96;100.00;102481.25;5050669;28;20454;-50
2022/03/18 06:19:17;;;;;;;0.20;0.10;;;;;;;4.91;100.00;102485.47;5052843;28;20457;-50
2022/03/18 06:21:47;;;;;;;0.20;0.10;;;;;;;4.42;100.00;102486.59;5036439;28;20479;-50
2022/03/18 06:24:15;;;;;;;0.20;0.10;;;;;;;4.43;100.00;102490.13;5045891;28;20443;-50
2022/03/18 06:26:42;;;;;;;0.20;0.20;;;;;;;4.82;100.00;102503.66;5046379;28;20467;-50
2022/03/18 06:29:09;;;;;;;0.20;0.20;;;;;;;4.80;100.00;102501.78;5046049;28;20952;-49
2022/03/18 06:31:37;;;;;;;0.20;0.10;;;;;;;5.27;100.00;102505.88;5039827;28;20832;-50
2022/03/18 06:34:04;;;;;;;0.30;0.20;;;;;;;5.60;100.00;102506.78;5039303;28;20448;-50
2022/03/18 06:36:30;;;;;;;0.20;0.10;;;;;;;5.84;100.00;102508.31;5045564;28;20483;-51
2022/03/18 06:38:57;;;;;;;0.20;0.10;;;;;;;6.11;99.89;102522.28;5046199;28;20451;-50
2022/03/18 06:41:25;;;;;;;0.20;0.20;;;;;;;6.00;99.37;102514.94;5039382;28;20475;-50
2022/03/18 06:43:51;;;;;;;0.20;0.10;;;;;;;6.15;97.75;102528.50;5039098;28;20484;-51
2022/03/18 06:46:19;;;;;;;0.20;0.20;;;;;;;6.44;97.79;102529.25;5045129;28;20933;-51
2022/03/18 06:48:45;;;;;;;0.20;0.10;;;;;;;6.41;96.57;102534.47;5050927;28;20455;-50
2022/03/18 06:51:12;;;;;;;0.20;0.10;;;;;;;6.49;97.05;102528.50;5039863;28;20807;-50
2022/03/18 06:53:39;;;;;;;0.20;0.20;;;;;;;6.48;94.86;102531.13;5039025;28;20519;-50
2022/03/18 06:56:08;;;;;;;0.20;0.20;;;;;;;6.52;95.26;102538.25;5044726;28;20481;-50
2022/03/18 06:58:35;;;;;;;0.20;0.20;;;;;;;6.50;94.91;102538.22;5045895;28;20450;-50
2022/03/18 07:01:02;;;;;;;0.20;0.17;;;;;;;6.48;95.25;102546.97;5040485;28;20477;-50
2022/03/18 07:03:29;;;;;;;0.20;0.10;;;;;;;6.51;94.74;102541.75;5039029;28;20456;-50
2022/03/18 07:05:56;;;;;;;0.30;0.20;;;;;;;6.63;94.97;102541.16;5043760;28;20452;-50
2022/03/18 07:08:22;;;;;;;0.30;0.20;;;;;;;6.67;93.10;102549.19;5045458;28;20952;-50
2022/03/18 07:10:49;;;;;;;0.23;0.10;;;;;;;6.84;92.90;102554.88;5041101;28;20514;-51
2022/03/18 07:13:16;;;;;;;0.30;0.20;;;;;;;6.71;93.42;102555.44;5042627;28;20494;-48
2022/03/18 07:15:43;;;;;;;0.20;0.10;;;;;;;6.83;92.56;102556.63;5062403;28;20458;-48
2022/03/18 07:18:10;;;;;;;0.20;0.10;;;;;;;6.76;93.07;102560.00;5052807;28;20535;-48
2022/03/18 07:20:38;;;;;;;0.20;0.10;;;;;;;6.82;92.46;102559.22;5046758;28;20944;-48
2022/03/18 07:23:12;;;;;;;4.33;1.30;;;;;;;6.97;92.21;102562.22;5042356;28;20471;-48
2022/03/18 07:25:41;;;;;;;0.30;0.20;;;;;;;7.03;92.74;102567.66;5044792;28;20479;-48
2022/03/18 07:28:11;;;;;;;0.30;0.13;;;;;;;7.10;91.42;102563.41;5049585;28;20447;-48
2022/03/18 07:30:39;;;;;;;0.30;0.20;;;;;;;7.11;92.63;102565.19;5049111;28;20496;-48
2022/03/18 07:33:06;;;;;;;0.20;0.20;;;;;;;7.12;92.13;102566.97;5042272;28;20517;-48
2022/03/18 07:35:34;;;;;;;0.20;0.17;;;;;;;7.33;92.68;102569.19;5043033;28;20818;-49
2022/03/18 07:38:03;;;;;;;0.30;0.20;;;;;;;7.25;93.12;102557.53;5049616;28;20498;-47
2022/03/18 07:40:30;;;;;;;0.30;0.20;;;;;;;7.36;91.98;102556.03;5049399;28;20951;-48
2022/03/18 07:42:57;;;;;;;0.30;0.17;;;;;;;7.32;91.69;102557.72;5043116;28;20520;-49
2022/03/18 07:45:26;;;;;;;0.30;0.20;;;;;;;7.35;91.56;102557.78;5042119;28;20477;-48
2022/03/18 07:47:55;;;;;;;0.20;0.20;;;;;;;7.52;93.10;102554.59;5055937;28;20518;-48
2022/03/18 07:50:23;;;;;;;0.23;0.20;;;;;;;7.55;91.69;102567.91;5042636;28;20451;-48
2022/03/18 07:52:52;;;;;;;0.30;0.20;;;;;;;7.68;92.17;102572.59;5047311;28;20522;-48
2022/03/18 07:55:20;;;;;;;0.20;0.10;;;;;;;7.66;90.75;102563.69;5049216;28;20446;-48
2022/03/18 07:57:47;;;;;;;0.30;0.20;;;;;;;7.63;90.51;102568.94;5044677;28;20451;-48
2022/03/18 08:00:15;;;;;;;0.50;0.50;;;;;;;7.63;90.84;102574.22;5042084;28;20458;-48
2022/03/18 08:02:43;;;;;;;0.30;0.20;;;;;;;7.71;91.00;102580.59;5046360;28;20518;-48
2022/03/18 08:05:12;;;;;;;0.30;0.20;;;;;;;7.81;90.75;102574.63;5049069;28;20450;-48
2022/03/18 08:07:39;;;;;;;0.30;0.20;;;;;;;7.94;92.84;102581.03;5045148;28;20450;-49
2022/03/18 08:10:08;;;;;;;0.30;0.20;;;;;;;7.98;91.77;102581.13;5042089;28;20481;-48
2022/03/18 08:12:36;;;;;;;0.30;0.17;;;;;;;8.05;92.22;102579.47;5044910;28;20981;-48
2022/03/18 08:15:08;;;;;;;0.30;0.20;;;;;;;7.95;90.26;102589.03;5066559;28;20832;-48
2022/03/18 08:17:36;;;;;;;0.30;0.20;;;;;;;8.15;91.79;102596.44;5053024;28;20454;-48
2022/03/18 08:20:03;;;;;;;0.30;0.20;;;;;;;8.19;90.12;102598.28;5049741;28;20513;-48
2022/03/18 08:22:30;;;;;;;0.30;0.10;;;;;;;8.16;90.08;102601.75;5037337;28;20475;-49
2022/03/18 08:24:57;;;;;;;0.30;0.20;;;;;;;8.21;91.30;102601.84;5048575;28;20505;-49
2022/03/18 08:27:23;;;;;;;0.30;0.20;;;;;;;8.16;89.92;102599.09;5046910;28;20450;-49
2022/03/18 08:29:50;;;;;;;0.30;0.20;;;;;;;8.22;89.24;102603.63;5041557;28;20952;-49
2022/03/18 08:32:17;;;;;;;0.30;0.20;;;;;;;8.28;88.44;102604.63;5042952;28;20487;-48
2022/03/18 08:34:44;;;;;;;0.30;0.20;;;;;;;8.21;88.05;102608.03;5048497;28;20451;-49
2022/03/18 08:37:10;;;;;;;0.30;0.20;;;;;;;8.11;87.64;102605.19;5047643;28;20451;-49
2022/03/18 08:39:38;;;;;;;0.30;0.20;;;;;;;8.34;88.86;102619.78;5041474;28;20454;-49
2022/03/18 08:42:05;;;;;;;27.10;1.23;;;;;;;8.39;88.02;102609.28;5041766;28;21043;-48
2022/03/18 08:44:31;;;;;;;0.30;0.20;;;;;;;8.42;86.79;102614.63;5041559;28;20482;-49
2022/03/18 08:46:58;;;;;;;0.30;0.20;;;;;;;8.40;86.67;102624.31;5045905;28;20955;-49
2022/03/18 08:49:25;;;;;;;0.30;0.20;;;;;;;8.40;85.18;102616.38;5034961;28;20941;-49
2022/03/18 08:51:52;;;;;;;0.30;0.20;;;;;;;8.52;84.76;102625.44;5048036;28;20471;-49
2022/03/18 08:54:21;;;;;;;0.30;0.13;;;;;;;8.45;83.54;102620.88;5041287;28;20447;-49
2022/03/18 08:56:48;;;;;;;0.30;0.20;;;;;;;8.70;83.43;102619.53;5041274;28;20452;-47
2022/03/18 08:59:15;;;;;;;0.30;0.20;;;;;;;8.85;83.19;102627.75;5046086;28;20448;-47
2022/03/18 09:01:42;;;;;;;1.60;1.07;;;;;;;8.90;81.58;102622.50;5047649;28;20466;-47
2022/03/18 09:04:09;;;;;;;0.30;0.20;;;;;;;9.10;81.40;102620.16;5042357;28;20454;-47
2022/03/18 09:06:36;;;;;;;0.30;0.20;;;;;;;8.99;80.58;102625.31;5040700;28;20456;-48
2022/03/18 09:09:04;;;;;;;0.30;0.20;;;;;;;9.03;77.86;102615.63;5046237;28;20502;-48
2022/03/18 09:11:31;;;;;;;0.30;0.20;;;;;;;9.18;80.84;102624.72;5047581;28;20482;-48
2022/03/18 09:13:58;;;;;;;0.30;0.20;;;;;;;9.33;81.64;102628.47;5043153;28;21092;-47
2022/03/18 09:16:25;;;;;;;0.30;0.20;;;;;;;9.37;78.16;102632.94;5050945;28;21030;-48
2022/03/18 09:18:59;;;;;;;0.30;0.20;;;;;;;9.38;77.53;102634.72;5044578;28;20450;-47
2022/03/18 09:21:26;;;;;;;0.30;0.20;;;;;;;9.15;77.10;102622.00;5039790;28;20823;-47
2022/03/18 09:23:52;;;;;;;0.30;0.20;;;;;;;9.36;77.32;102625.88;5044284;28;20490;-48
2022/03/18 09:26:24;;;;;;;0.30;0.20;;;;;;;9.36;76.20;102628.50;5040847;28;20458;-47
2022/03/18 09:28:51;;;;;;;0.30;0.20;;;;;;;9.53;74.52;102632.28;5043043;28;20806;-48
2022/03/18 09:31:17;;;;;;;0.30;0.20;;;;;;;9.39;75.78;102633.88;5047247;28;20480;-48
2022/03/18 09:33:46;;;;;;;0.30;0.20;;;;;;;9.50;76.53;102627.84;5044831;28;20486;-48
2022/03/18 09:36:18;;;;;;;0.30;0.20;;;;;;;9.43;75.43;102636.56;5040528;28;20450;-48
2022/03/18 09:38:46;;;;;;;0.30;0.20;;;;;;;9.44;75.57;102634.81;5041923;28;20820;-48
2022/03/18 09:41:13;;;;;;;0.30;0.20;;;;;;;9.41;74.57;102634.78;5046450;28;20498;-48
2022/03/18 09:43:40;;;;;;;0.30;0.20;;;;;;;9.53;75.06;102632.28;5046221;28;20485;-48
2022/03/18 09:46:11;;;;;;;0.30;0.20;;;;;;;9.68;73.88;102624.50;5040305;28;20505;-48
2022/03/18 09:49:00;;;;;;;0.30;0.20;;;;;;;9.57;74.69;102630.56;5046835;28;20448;-47
2022/03/18 09:51:27;;;;;;;0.73;0.67;;;;;;;9.66;73.72;102630.69;5043624;28;21003;-48
2022/03/18 09:54:16;;;;;;;0.30;0.20;;;;;;;9.54;72.96;102622.56;5039774;28;20929;-47
2022/03/18 09:56:45;;;;;;;0.30;0.20;;;;;;;9.79;73.13;102625.56;5040403;28;20451;-48
2022/03/18 09:59:12;;;;;;;0.30;0.20;;;;;;;9.83;71.89;102642.41;5040359;28;20458;-48
2022/03/18 10:01:39;;;;;;;0.30;0.20;;;;;;;9.91;70.01;102638.09;5039948;28;20530;-48
2022/03/18 10:04:11;;;;;;;0.30;0.20;;;;;;;9.94;69.56;102639.88;5046806;28;20535;-48
2022/03/18 10:06:42;;;;;;;0.30;0.20;;;;;;;9.82;68.78;102626.47;5046767;28;20446;-48
2022/03/18 10:09:14;;;;;;;0.30;0.20;;;;;;;10.10;69.70;102631.22;5042072;28;20790;-48
2022/03/18 10:11:43;;;;;;;0.30;0.20;;;;;;;9.94;68.62;102626.59;5039821;28;20540;-47
2022/03/18 10:14:16;;;;;;;0.30;0.20;;;;;;;9.89;67.65;102630.97;5053270;28;20494;-49
2022/03/18 10:16:50;;;;;;;0.30;0.20;;;;;;;9.90;65.54;102630.09;5050896;28;20479;-48
2022/03/18 10:19:24;;;;;;;0.30;0.20;;;;;;;10.07;65.94;102633.84;5052996;28;20478;-47
2022/03/18 10:21:54;;;;;;;0.40;0.30;;;;;;;10.21;66.41;102634.00;5045912;28;20997;-48
2022/03/18 10:24:33;;;;;;;0.30;0.20;;;;;;;10.19;66.46;102639.28;5046436;28;20450;-48
2022/03/18 10:27:14;;;;;;;0.30;0.20;;;;;;;10.21;66.97;102637.56;5043237;28;20450;-48
2022/03/18 10:29:50;;;;;;;0.30;0.20;;;;;;;9.97;66.32;102634.59;5039647;28;20469;-48
2022/03/18 10:32:18;;;;;;;0.30;0.20;;;;;;;10.11;67.60;102643.63;5040303;28;20497;-48
2022/03/18 10:37:49;;;;;;;0.30;0.20;;;;;;;10.05;63.61;102640.91;5046356;28;20990;-48
2022/03/18 10:40:30;;;;;;;0.30;0.20;;;;;;;9.72;62.98;102654.66;5043960;28;20520;-47
2022/03/18 10:42:58;;;;;;;0.30;0.20;;;;;;;9.60;63.95;102642.13;5039279;28;20516;-48
2022/03/18 10:45:25;;;;;;;0.30;0.20;;;;;;;9.99;64.46;102639.06;5039299;28;20863;-48
2022/03/18 10:47:52;;;;;;;0.30;0.20;;;;;;;9.79;64.52;102644.13;5044489;28;20450;-48
2022/03/18 10:50:23;;;;;;;0.30;0.20;;;;;;;9.71;63.36;102640.47;5038798;28;20543;-48
2022/03/18 10:52:50;;;;;;;0.30;0.20;;;;;;;9.65;64.36;102642.19;5044527;28;20541;-47
2022/03/18 10:55:19;;;;;;;0.30;0.20;;;;;;;9.98;64.99;102647.00;5046072;28;20532;-48
2022/03/18 10:58:11;;;;;;;0.30;0.20;;;;;;;9.84;63.58;102660.13;5041042;28;20451;-48
2022/03/18 11:00:46;;;;;;;0.30;0.20;;;;;;;9.82;61.69;102650.34;5031832;28;20451;-48
2022/03/18 11:03:14;;;;;;;0.30;0.20;;;;;;;9.88;63.05;102655.78;5039047;28;20533;-48
2022/03/18 11:05:42;;;;;;;0.40;0.40;;;;;;;9.91;63.19;102661.09;5039043;28;20462;-47
2022/03/18 11:08:14;;;;;;;0.30;0.20;;;;;;;9.96;63.11;102657.63;5038602;28;20443;-48
2022/03/18 11:13:35;;;;;;;0.30;0.20;;;;;;;10.24;60.98;102636.72;5054364;28;20493;-48
2022/03/18 11:16:03;;;;;;;0.30;0.20;;;;;;;10.41;61.83;102636.88;5059592;28;20864;-47
2022/03/18 11:18:31;;;;;;;0.30;0.20;;;;;;;10.53;62.04;102635.22;5049641;28;20955;-47
2022/03/18 11:21:00;;;;;;;0.30;0.20;;;;;;;10.55;58.80;102635.25;5040511;28;20509;-48
2022/03/18 11:23:27;;;;;;;0.30;0.20;;;;;;;10.47;58.18;102636.97;5039244;28;20861;-47
2022/03/18 11:26:00;;;;;;;0.30;0.20;;;;;;;10.55;58.94;102637.91;5038559;28;20451;-48
2022/03/18 11:28:27;;;;;;;0.30;0.20;;;;;;;10.64;57.19;102640.66;5044296;28;20447;-48
2022/03/18 11:31:04;;;;;;;0.93;0.93;;;;;;;10.81;57.68;102655.00;5045496;28;20451;-48
2022/03/18 11:33:33;;;;;;;0.30;0.20;;;;;;;10.82;57.46;102640.81;5041568;28;20490;-47
2022/03/18 11:36:00;;;;;;;0.30;0.20;;;;;;;10.67;56.78;102633.59;5038394;28;20447;-47
2022/03/18 11:38:51;;;;;;;0.30;0.20;;;;;;;10.96;57.48;102638.25;5042011;28;20490;-48
2022/03/18 11:41:19;;;;;;;0.30;0.20;;;;;;;10.99;56.70;102632.97;5030452;28;20478;-48
2022/03/18 11:43:45;;;;;;;0.30;0.20;;;;;;;11.07;56.82;102636.56;5038626;28;20451;-48
2022/03/18 11:46:12;;;;;;;0.30;0.20;;;;;;;11.06;56.42;102640.13;5045123;28;20451;-47
2022/03/18 11:49:02;;;;;;;0.87;0.87;;;;;;;11.03;55.51;102634.78;5049547;28;20453;-48
2022/03/18 11:51:46;;;;;;;0.30;0.20;;;;;;;10.99;55.81;102627.66;5042747;28;20894;-48
2022/03/18 11:54:23;;;;;;;0.30;0.20;;;;;;;11.13;55.17;102627.75;5038419;28;20926;-47